Time;durP1;ratioP1;P1;durP2;ratioP2;P2;SDS_P1;SDS_P2;PMS_P1;PMS_P2;Temp;Humidity;BMP_temperature;BMP_pressure;BME280_temperature;BME280_humidity;BME280_pressure;Samples;Min_cycle;Max_cycle;Signal;HPM_P1;HPM_P2
2021/08/26 00:06:29;;;;;;;8.35;6.90;;;19.20;99.90;;;;;;5040465;28;20028;-76
2021/08/26 00:08:55;;;;;;;8.43;7.40;;;19.20;99.90;;;;;;5068431;28;20032;-76
2021/08/26 00:11:23;;;;;;;11.10;7.65;;;19.20;99.90;;;;;;5075846;28;20458;-71
2021/08/26 00:13:51;;;;;;;8.38;6.80;;;19.30;99.90;;;;;;5073248;28;20035;-72
2021/08/26 00:16:23;;;;;;;9.13;6.68;;;19.30;99.90;;;;;;5074797;28;20055;-71
2021/08/26 00:18:49;;;;;;;9.70;6.82;;;19.30;99.90;;;;;;5048400;28;20024;-71
2021/08/26 00:21:15;;;;;;;10.23;7.00;;;19.20;99.90;;;;;;5073822;28;20389;-70
2021/08/26 00:23:41;;;;;;;11.27;8.48;;;19.20;99.90;;;;;;5070954;28;20102;-71
2021/08/26 00:26:07;;;;;;;11.07;8.30;;;19.20;99.90;;;;;;5064989;28;20469;-71
2021/08/26 00:28:33;;;;;;;12.35;8.45;;;19.20;99.90;;;;;;5073956;28;20023;-71
2021/08/26 00:30:59;;;;;;;10.85;8.85;;;19.20;99.90;;;;;;5071455;28;20044;-70
2021/08/26 00:33:24;;;;;;;12.00;9.30;;;19.20;99.90;;;;;;5071946;28;20031;-71
2021/08/26 00:35:51;;;;;;;9.82;8.80;;;19.20;99.90;;;;;;5070070;28;20052;-71
2021/08/26 00:38:16;;;;;;;10.85;9.48;;;19.20;99.90;;;;;;5077625;28;20008;-71
2021/08/26 00:40:42;;;;;;;12.70;9.65;;;19.30;99.90;;;;;;5072915;28;20037;-71
2021/08/26 00:43:08;;;;;;;13.55;8.88;;;19.20;99.90;;;;;;5068586;28;20099;-71
2021/08/26 00:45:34;;;;;;;15.18;11.05;;;19.20;99.90;;;;;;5072381;28;20473;-71
2021/08/26 00:48:02;;;;;;;13.25;10.55;;;19.20;99.90;;;;;;5066286;28;20032;-71
2021/08/26 00:50:29;;;;;;;13.00;10.20;;;19.20;99.90;;;;;;5055539;28;20469;-71
2021/08/26 00:52:55;;;;;;;13.45;10.65;;;19.20;99.90;;;;;;5065869;28;20082;-71
2021/08/26 00:55:21;;;;;;;11.45;9.45;;;19.20;99.90;;;;;;5065028;28;20556;-71
2021/08/26 00:57:47;;;;;;;15.70;10.88;;;19.20;99.90;;;;;;5072828;28;20020;-71
2021/08/26 01:00:13;;;;;;;15.00;10.93;;;19.20;99.90;;;;;;5055551;28;20386;-72
2021/08/26 01:02:56;;;;;;;13.07;10.50;;;19.10;99.90;;;;;;5068817;28;20064;-73
2021/08/26 01:05:52;;;;;;;12.50;10.13;;;19.10;99.90;;;;;;5071034;28;20082;-72
2021/08/26 01:08:40;;;;;;;15.88;10.52;;;19.20;99.90;;;;;;5070760;28;20049;-71
2021/08/26 01:11:06;;;;;;;12.88;10.63;;;19.20;99.90;;;;;;5065466;28;20020;-71
2021/08/26 01:13:40;;;;;;;11.02;9.90;;;19.30;99.90;;;;;;5070472;28;20028;-71
2021/08/26 01:16:14;;;;;;;14.40;9.90;;;19.30;99.90;;;;;;5071775;28;20489;-71
2021/08/26 01:18:45;;;;;;;13.68;10.93;;;19.10;99.90;;;;;;5066941;28;20036;-71
2021/08/26 01:21:17;;;;;;;10.07;9.02;;;19.20;99.90;;;;;;5070164;28;20032;-72
2021/08/26 01:23:48;;;;;;;9.80;8.23;;;19.10;99.90;;;;;;5068227;28;20035;-71
2021/08/26 01:26:40;;;;;;;10.80;9.13;;;19.00;99.90;;;;;;5071804;28;20047;-72
2021/08/26 01:29:08;;;;;;;13.85;9.20;;;19.10;99.90;;;;;;5066518;28;20503;-71
2021/08/26 01:31:34;;;;;;;12.25;8.57;;;19.00;99.90;;;;;;5063773;28;20025;-71
2021/08/26 01:34:01;;;;;;;10.73;9.05;;;19.00;99.90;;;;;;5064803;28;20032;-70
2021/08/26 01:36:29;;;;;;;10.93;8.38;;;19.00;99.90;;;;;;5065168;28;20047;-71
2021/08/26 01:39:01;;;;;;;8.73;7.88;;;19.00;99.90;;;;;;5067202;28;20021;-71
2021/08/26 01:41:45;;;;;;;10.13;8.75;;;19.10;99.90;;;;;;5069510;28;20547;-71
2021/08/26 01:44:13;;;;;;;11.10;7.75;;;19.00;99.90;;;;;;5052918;28;20066;-72
2021/08/26 01:46:38;;;;;;;9.77;7.55;;;19.00;99.90;;;;;;5069539;28;20032;-72
2021/08/26 01:49:04;;;;;;;9.38;8.27;;;19.00;99.90;;;;;;5063888;28;20021;-70
2021/08/26 01:51:30;;;;;;;7.97;6.93;;;19.00;99.90;;;;;;5070378;28;20108;-71
2021/08/26 01:53:56;;;;;;;7.88;7.15;;;19.10;99.90;;;;;;5070322;28;20515;-71
2021/08/26 01:56:22;;;;;;;9.00;7.25;;;19.10;99.90;;;;;;5071781;28;20098;-71
2021/08/26 01:58:48;;;;;;;8.98;6.95;;;19.20;99.90;;;;;;5065668;28;20482;-71
2021/08/26 02:01:14;;;;;;;9.00;6.95;;;19.20;99.90;;;;;;5069748;28;20025;-71
2021/08/26 02:03:39;;;;;;;8.27;7.47;;;19.20;99.90;;;;;;5069272;28;20047;-71
2021/08/26 02:06:05;;;;;;;7.70;6.72;;;19.20;99.90;;;;;;5071046;28;20473;-71
2021/08/26 02:08:30;;;;;;;7.90;7.10;;;19.20;99.90;;;;;;5067381;28;20024;-71
2021/08/26 02:10:56;;;;;;;8.27;7.00;;;19.20;99.90;;;;;;5041650;28;20191;-71
2021/08/26 02:13:22;;;;;;;10.30;7.43;;;19.20;99.90;;;;;;5057788;28;20383;-71
2021/08/26 02:15:47;;;;;;;8.57;6.60;;;19.20;99.90;;;;;;5060952;28;20075;-71
2021/08/26 02:18:13;;;;;;;10.32;7.13;;;19.20;99.90;;;;;;5057764;28;20021;-71
2021/08/26 02:20:39;;;;;;;8.90;7.43;;;19.20;99.90;;;;;;5059866;28;20024;-71
2021/08/26 02:23:04;;;;;;;8.90;6.93;;;19.20;99.90;;;;;;5058088;28;20445;-71
2021/08/26 02:25:30;;;;;;;7.60;6.50;;;19.20;99.90;;;;;;5063492;28;20029;-71
2021/08/26 02:27:56;;;;;;;9.55;6.57;;;19.30;99.90;;;;;;5059707;28;20048;-71
2021/08/26 02:30:21;;;;;;;9.32;7.65;;;19.30;99.90;;;;;;5059966;28;20185;-71
2021/08/26 02:32:47;;;;;;;7.50;5.95;;;19.30;99.90;;;;;;5060722;28;20048;-71
2021/08/26 02:35:13;;;;;;;7.93;6.25;;;19.30;99.90;;;;;;5055278;28;20036;-71
2021/08/26 02:37:39;;;;;;;8.05;6.10;;;19.30;99.90;;;;;;5055682;28;20063;-71
2021/08/26 02:40:05;;;;;;;7.85;6.90;;;19.30;99.90;;;;;;5060264;28;20025;-71
2021/08/26 02:42:31;;;;;;;6.13;5.45;;;19.30;99.90;;;;;;5057658;28;20025;-71
2021/08/26 02:44:57;;;;;;;8.95;6.15;;;19.30;99.90;;;;;;5065423;28;20048;-72
2021/08/26 02:47:22;;;;;;;6.78;5.78;;;19.30;99.90;;;;;;5059415;28;20100;-70
2021/08/26 02:49:48;;;;;;;9.32;6.65;;;19.30;99.90;;;;;;5059405;28;20174;-71
2021/08/26 02:52:14;;;;;;;7.22;5.93;;;19.30;99.90;;;;;;5051361;28;20027;-71
2021/08/26 02:54:40;;;;;;;10.50;6.80;;;19.20;99.90;;;;;;5059254;28;20393;-72
2021/08/26 02:57:06;;;;;;;8.02;7.22;;;19.30;99.90;;;;;;5057018;28;20047;-71
2021/08/26 02:59:32;;;;;;;8.93;6.93;;;19.30;99.90;;;;;;5058090;28;20032;-72
2021/08/26 03:01:57;;;;;;;7.93;6.60;;;19.20;99.90;;;;;;5059264;28;20056;-72
2021/08/26 03:04:23;;;;;;;7.28;6.53;;;19.10;99.90;;;;;;5056332;28;20063;-72
2021/08/26 03:06:49;;;;;;;8.98;6.40;;;19.10;99.90;;;;;;5059408;28;20025;-73
2021/08/26 03:09:15;;;;;;;9.25;6.40;;;19.10;99.90;;;;;;5058490;28;20028;-78
2021/08/26 03:11:40;;;;;;;8.68;6.43;;;19.20;99.90;;;;;;5058359;28;20131;-72
2021/08/26 03:14:06;;;;;;;7.38;5.82;;;19.10;99.90;;;;;;5057930;28;20099;-72
2021/08/26 03:16:32;;;;;;;8.90;6.05;;;19.10;99.90;;;;;;5058312;28;20040;-76
2021/08/26 03:18:58;;;;;;;9.45;6.03;;;19.10;99.90;;;;;;5057766;28;20028;-72
2021/08/26 03:21:23;;;;;;;6.18;5.00;;;19.10;99.90;;;;;;5061838;28;20060;-74
2021/08/26 03:23:49;;;;;;;8.75;6.13;;;19.10;99.90;;;;;;5056709;28;20054;-71
2021/08/26 03:26:15;;;;;;;7.68;5.88;;;19.10;99.90;;;;;;5060637;28;20063;-77
2021/08/26 03:28:40;;;;;;;10.35;6.13;;;19.10;99.90;;;;;;5040636;28;20020;-72
2021/08/26 03:31:06;;;;;;;8.68;6.15;;;19.10;99.90;;;;;;5057169;28;20047;-71
2021/08/26 03:33:32;;;;;;;7.57;5.30;;;19.20;99.90;;;;;;5060809;28;20032;-71
2021/08/26 03:35:58;;;;;;;6.90;5.22;;;19.10;99.90;;;;;;5057867;28;20346;-78
2021/08/26 03:38:23;;;;;;;12.63;5.53;;;19.10;99.90;;;;;;5058182;28;20020;-72
2021/08/26 03:40:49;;;;;;;8.50;4.28;;;19.20;99.90;;;;;;5063638;28;20029;-74
2021/08/26 03:43:15;;;;;;;7.78;4.53;;;19.10;99.90;;;;;;5057124;28;20469;-71
2021/08/26 03:45:41;;;;;;;9.93;4.55;;;19.10;99.90;;;;;;5058285;28;20021;-73
2021/08/26 03:48:06;;;;;;;9.27;4.38;;;19.20;99.90;;;;;;5054028;28;20021;-72
2021/08/26 03:50:32;;;;;;;8.70;4.50;;;19.10;99.90;;;;;;5063641;28;20039;-77
2021/08/26 03:52:58;;;;;;;9.52;3.90;;;19.10;99.90;;;;;;5060254;28;20064;-71
2021/08/26 03:55:24;;;;;;;9.70;3.97;;;19.10;99.90;;;;;;5058958;28;20041;-72
2021/08/26 03:57:49;;;;;;;7.47;4.30;;;19.10;99.90;;;;;;5057510;28;20504;-71
2021/08/26 04:00:15;;;;;;;9.95;4.20;;;19.10;99.90;;;;;;5043335;28;20536;-71
2021/08/26 04:02:41;;;;;;;6.15;4.82;;;19.10;99.90;;;;;;5057787;28;20073;-71
2021/08/26 04:05:07;;;;;;;6.90;3.38;;;19.00;99.90;;;;;;5058813;28;20017;-71
2021/08/26 04:07:32;;;;;;;9.93;4.47;;;18.90;99.90;;;;;;5041600;28;20029;-73
2021/08/26 04:09:59;;;;;;;9.80;3.90;;;18.90;99.90;;;;;;5061694;28;20029;-71
2021/08/26 04:12:26;;;;;;;9.82;3.67;;;19.00;99.90;;;;;;5062973;28;20020;-72
2021/08/26 04:14:55;;;;;;;10.38;4.25;;;18.90;99.90;;;;;;5058518;28;20376;-71
2021/08/26 04:17:21;;;;;;;8.35;3.90;;;18.80;99.90;;;;;;5058407;28;20528;-71
2021/08/26 04:19:47;;;;;;;7.22;4.22;;;18.80;99.90;;;;;;5059422;28;20056;-71
2021/08/26 04:22:13;;;;;;;12.05;4.28;;;18.80;99.90;;;;;;5062556;28;20078;-71
2021/08/26 04:24:39;;;;;;;11.40;4.00;;;18.80;99.90;;;;;;5066459;28;20718;-70
2021/08/26 04:27:05;;;;;;;10.80;4.13;;;18.80;99.90;;;;;;5061289;28;20029;-72
2021/08/26 04:29:30;;;;;;;12.23;4.55;;;18.80;99.90;;;;;;5071086;28;20512;-71
2021/08/26 04:31:56;;;;;;;13.73;4.68;;;18.80;99.90;;;;;;5069425;28;20024;-72
2021/08/26 04:34:22;;;;;;;13.05;4.45;;;18.80;99.90;;;;;;5065458;28;20035;-71
2021/08/26 04:36:48;;;;;;;10.93;4.90;;;18.80;99.90;;;;;;5073839;28;20487;-71
2021/08/26 04:39:13;;;;;;;10.20;3.88;;;18.70;99.90;;;;;;5054606;28;20024;-71
2021/08/26 04:41:39;;;;;;;13.18;4.35;;;18.70;99.90;;;;;;5069690;28;20029;-71
2021/08/26 04:44:06;;;;;;;11.00;4.10;;;18.70;99.90;;;;;;5065124;28;20016;-71
2021/08/26 04:46:32;;;;;;;15.38;4.35;;;18.80;99.90;;;;;;5069163;28;20051;-71
2021/08/26 04:48:58;;;;;;;10.93;4.25;;;18.70;99.90;;;;;;5055307;28;20017;-71
2021/08/26 04:51:24;;;;;;;14.43;4.30;;;18.70;99.90;;;;;;5066374;28;20079;-71
2021/08/26 04:53:49;;;;;;;13.00;4.40;;;18.70;99.90;;;;;;5067011;28;20065;-71
2021/08/26 04:56:16;;;;;;;18.30;4.28;;;18.60;99.90;;;;;;5067315;28;20080;-71
2021/08/26 04:58:42;;;;;;;16.08;4.43;;;18.60;99.90;;;;;;5072862;28;20494;-71
2021/08/26 05:01:08;;;;;;;13.80;5.03;;;18.40;99.90;;;;;;5069528;28;20044;-70
2021/08/26 05:03:34;;;;;;;15.45;4.88;;;18.40;99.90;;;;;;5063240;28;20455;-71
2021/08/26 05:06:03;;;;;;;10.05;3.88;;;18.50;99.90;;;;;;5067240;28;20063;-72
2021/08/26 05:08:28;;;;;;;16.73;4.70;;;18.50;99.90;;;;;;5072483;28;20032;-71
2021/08/26 05:10:54;;;;;;;16.60;4.53;;;18.60;99.90;;;;;;5068007;28;20113;-71
2021/08/26 05:13:19;;;;;;;14.93;5.00;;;18.60;99.90;;;;;;5069043;28;20032;-74
2021/08/26 05:15:45;;;;;;;14.73;4.78;;;18.50;99.90;;;;;;5067038;28;20033;-72
2021/08/26 05:18:11;;;;;;;16.13;5.00;;;18.50;99.90;;;;;;5066871;28;20389;-71
2021/08/26 05:20:36;;;;;;;17.83;4.97;;;18.50;99.90;;;;;;5069894;28;20121;-71
2021/08/26 05:23:02;;;;;;;18.17;4.93;;;18.60;99.90;;;;;;5072166;28;20423;-72
2021/08/26 05:25:28;;;;;;;15.70;4.72;;;18.60;99.90;;;;;;5053823;28;20029;-72
2021/08/26 05:27:53;;;;;;;13.45;4.45;;;18.50;99.90;;;;;;5065334;28;20056;-71
2021/08/26 05:30:19;;;;;;;14.90;4.65;;;18.50;99.90;;;;;;5066187;28;20033;-71
2021/08/26 05:32:45;;;;;;;15.98;5.03;;;18.50;99.90;;;;;;5064099;28;20074;-71
2021/08/26 05:35:10;;;;;;;15.82;5.05;;;18.50;99.90;;;;;;5071544;28;20119;-72
2021/08/26 05:37:36;;;;;;;15.63;5.55;;;18.50;99.90;;;;;;5061664;28;20123;-72
2021/08/26 05:40:03;;;;;;;17.60;4.75;;;18.50;99.90;;;;;;5065982;28;20032;-72
2021/08/26 05:42:29;;;;;;;12.93;4.78;;;18.50;99.90;;;;;;5069193;28;20032;-71
2021/08/26 05:44:54;;;;;;;16.67;4.85;;;18.40;99.90;;;;;;5067820;28;20020;-71
2021/08/26 05:47:20;;;;;;;12.98;4.13;;;18.40;99.90;;;;;;5061710;28;20056;-71
2021/08/26 05:49:47;;;;;;;13.90;5.00;;;18.40;99.90;;;;;;5054748;28;20097;-73
2021/08/26 05:52:12;;;;;;;19.10;6.18;;;18.40;99.90;;;;;;5054329;28;20028;-72
2021/08/26 05:54:38;;;;;;;10.07;4.25;;;18.40;99.90;;;;;;5061649;28;20028;-71
2021/08/26 05:57:04;;;;;;;17.80;4.40;;;18.50;99.90;;;;;;5069494;28;20476;-72
2021/08/26 05:59:30;;;;;;;13.57;4.68;;;18.50;99.90;;;;;;5065253;28;20106;-71
2021/08/26 06:01:56;;;;;;;11.65;4.22;;;18.60;99.90;;;;;;5068433;28;20027;-72
2021/08/26 06:04:21;;;;;;;16.05;4.65;;;18.40;99.90;;;;;;5070319;28;20042;-71
2021/08/26 06:06:47;;;;;;;14.93;5.25;;;18.40;99.90;;;;;;5068537;28;20016;-71
2021/08/26 06:09:13;;;;;;;18.25;4.30;;;18.30;99.90;;;;;;5067559;28;20116;-71
2021/08/26 06:11:38;;;;;;;18.85;4.50;;;18.40;99.90;;;;;;5062974;28;20049;-71
2021/08/26 06:14:04;;;;;;;17.27;4.82;;;18.40;99.90;;;;;;5064037;28;20114;-77
2021/08/26 06:16:29;;;;;;;16.70;4.95;;;18.40;99.90;;;;;;5068540;28;20028;-72
2021/08/26 06:18:55;;;;;;;15.82;4.60;;;18.40;99.90;;;;;;5065179;28;20064;-72
2021/08/26 06:21:21;;;;;;;20.38;4.93;;;18.40;99.90;;;;;;5070103;28;20452;-73
2021/08/26 06:23:46;;;;;;;13.82;5.03;;;18.40;99.90;;;;;;5064869;28;20135;-78
2021/08/26 06:26:12;;;;;;;14.75;4.85;;;18.30;99.90;;;;;;5068825;28;20029;-72
2021/08/26 06:28:38;;;;;;;15.13;4.72;;;18.40;99.90;;;;;;5068596;28;20439;-71
2021/08/26 06:31:03;;;;;;;13.07;4.70;;;18.40;99.90;;;;;;5063116;28;20358;-78
2021/08/26 06:33:29;;;;;;;13.43;5.03;;;18.40;99.90;;;;;;5068549;28;20028;-72
2021/08/26 06:35:55;;;;;;;8.40;4.10;;;18.50;99.90;;;;;;5071189;28;20036;-72
2021/08/26 06:38:21;;;;;;;16.20;3.95;;;18.50;99.90;;;;;;5066697;28;20103;-72
2021/08/26 06:40:46;;;;;;;11.63;3.80;;;18.50;99.90;;;;;;5069980;28;20044;-72
2021/08/26 06:43:12;;;;;;;10.63;3.40;;;18.50;99.90;;;;;;5052751;28;20064;-72
2021/08/26 06:45:38;;;;;;;11.98;4.13;;;18.50;99.90;;;;;;5069692;28;20618;-77
2021/08/26 06:48:04;;;;;;;12.65;3.38;;;18.50;99.90;;;;;;5068056;28;20024;-72
2021/08/26 06:50:29;;;;;;;12.52;3.92;;;18.60;99.90;;;;;;5068659;28;20016;-76
2021/08/26 06:52:55;;;;;;;12.95;3.78;;;18.70;99.90;;;;;;5068695;28;20078;-79
2021/08/26 06:55:21;;;;;;;13.70;3.78;;;18.70;99.90;;;;;;5067548;28;20370;-77
2021/08/26 06:57:46;;;;;;;8.07;3.30;;;18.60;99.90;;;;;;5068702;28;20349;-79
2021/08/26 07:00:13;;;;;;;13.77;4.20;;;18.70;99.90;;;;;;5066486;28;20016;-75
2021/08/26 07:02:39;;;;;;;12.73;4.22;;;18.60;99.90;;;;;;5050513;28;20641;-76
2021/08/26 07:05:05;;;;;;;11.57;3.80;;;18.60;99.90;;;;;;5066265;28;20028;-78
2021/08/26 07:07:30;;;;;;;10.45;4.40;;;18.60;99.90;;;;;;5067764;28;20020;-77
2021/08/26 07:09:58;;;;;;;15.13;4.55;;;18.50;99.90;;;;;;5067622;28;20074;-77
2021/08/26 07:12:30;;;;;;;17.50;5.10;;;18.50;99.90;;;;;;5069447;28;20012;-78
2021/08/26 07:14:56;;;;;;;21.85;5.20;;;18.50;99.90;;;;;;5070456;28;20032;-75
2021/08/26 07:17:21;;;;;;;20.55;5.40;;;18.40;99.90;;;;;;5061988;28;20033;-78
2021/08/26 07:19:47;;;;;;;15.43;5.93;;;18.50;99.90;;;;;;5064197;28;20058;-74
2021/08/26 07:22:12;;;;;;;17.15;5.20;;;18.60;99.90;;;;;;5070585;28;20103;-80
2021/08/26 07:24:38;;;;;;;13.50;5.00;;;18.50;99.90;;;;;;5066404;28;20510;-79
2021/08/26 07:27:04;;;;;;;23.40;5.03;;;18.50;99.90;;;;;;5066036;28;20025;-77
2021/08/26 07:29:31;;;;;;;15.70;4.90;;;18.60;99.90;;;;;;5063391;28;20021;-79
2021/08/26 07:31:59;;;;;;;15.65;4.32;;;18.70;99.90;;;;;;5063956;28;20040;-77
2021/08/26 07:34:25;;;;;;;18.63;5.13;;;18.60;99.90;;;;;;5067309;28;20028;-79
2021/08/26 07:36:51;;;;;;;16.88;4.97;;;18.70;99.90;;;;;;5067345;28;20107;-79
2021/08/26 07:39:16;;;;;;;21.05;5.82;;;18.80;99.90;;;;;;5070576;28;20096;-78
2021/08/26 07:41:43;;;;;;;15.02;5.10;;;18.90;99.90;;;;;;5069269;28;20017;-78
2021/08/26 07:44:09;;;;;;;11.75;4.03;;;19.00;99.90;;;;;;5068152;28;20020;-74
2021/08/26 07:46:34;;;;;;;16.95;4.97;;;18.90;99.90;;;;;;5069135;28;20024;-78
2021/08/26 07:49:02;;;;;;;18.60;5.30;;;18.90;99.90;;;;;;5064247;28;20052;-79
2021/08/26 07:51:28;;;;;;;16.48;4.32;;;18.90;99.90;;;;;;5070140;28;20491;-79
2021/08/26 07:53:55;;;;;;;12.23;4.82;;;18.90;99.90;;;;;;5068382;28;20116;-78
2021/08/26 07:56:20;;;;;;;16.35;4.63;;;18.90;99.90;;;;;;5065594;28;20041;-75
2021/08/26 07:58:46;;;;;;;14.50;4.18;;;18.90;99.90;;;;;;5073248;28;20028;-79
2021/08/26 08:01:11;;;;;;;14.80;4.68;;;18.90;99.90;;;;;;5069208;28;20052;-77
2021/08/26 08:03:37;;;;;;;14.85;4.72;;;19.00;99.90;;;;;;5065370;28;20028;-78
2021/08/26 08:06:03;;;;;;;13.02;5.03;;;19.00;99.90;;;;;;5065923;28;20029;-79
2021/08/26 08:08:29;;;;;;;13.70;4.43;;;19.00;99.90;;;;;;5075611;28;20048;-76
2021/08/26 08:10:55;;;;;;;11.65;4.68;;;19.10;99.90;;;;;;5073116;28;20021;-80
2021/08/26 08:13:21;;;;;;;15.48;4.45;;;19.10;99.90;;;;;;5072149;28;20031;-80
2021/08/26 08:15:47;;;;;;;14.38;4.53;;;19.30;99.90;;;;;;5067305;28;20037;-78
2021/08/26 08:18:12;;;;;;;15.35;4.38;;;19.40;99.90;;;;;;5066543;28;20029;-76
2021/08/26 08:20:38;;;;;;;17.75;4.30;;;19.40;99.90;;;;;;5069847;28;20092;-80
2021/08/26 08:23:05;;;;;;;12.40;3.95;;;19.50;99.90;;;;;;5072583;28;20080;-78
2021/08/26 08:25:31;;;;;;;13.38;4.00;;;19.50;99.90;;;;;;5070985;28;20614;-71
2021/08/26 08:27:56;;;;;;;21.23;4.25;;;19.60;99.90;;;;;;5070144;28;20099;-77
2021/08/26 08:30:26;;;;;;;11.30;3.70;;;19.60;99.90;;;;;;5072440;28;20020;-78
2021/08/26 08:32:54;;;;;;;14.75;3.58;;;19.50;99.90;;;;;;5072444;28;20147;-78
2021/08/26 08:35:21;;;;;;;15.30;3.70;;;19.60;99.90;;;;;;5070905;28;20024;-78
2021/08/26 08:37:47;;;;;;;12.43;3.72;;;19.60;99.90;;;;;;5069239;28;20679;-80
2021/08/26 08:40:13;;;;;;;14.10;3.92;;;19.60;99.90;;;;;;5069773;28;20021;-78
2021/08/26 08:42:38;;;;;;;10.70;3.38;;;19.70;99.90;;;;;;5069671;28;20035;-81
2021/08/26 08:45:05;;;;;;;11.90;3.38;;;19.60;99.90;;;;;;5074522;28;20024;-81
2021/08/26 08:47:37;;;;;;;13.05;3.45;;;19.70;99.90;;;;;;5063508;28;20048;-80
2021/08/26 08:50:04;;;;;;;13.40;3.95;;;19.70;99.90;;;;;;5070707;28;20484;-77
2021/08/26 08:52:40;;;;;;;12.50;2.97;;;19.70;99.90;;;;;;5073055;28;20020;-76
2021/08/26 08:55:10;;;;;;;17.77;3.95;;;19.70;99.90;;;;;;5072387;28;20020;-78
2021/08/26 08:57:42;;;;;;;12.27;3.38;;;19.70;99.90;;;;;;5067761;28;20040;-78
2021/08/26 09:00:10;;;;;;;18.30;3.50;;;19.70;99.90;;;;;;5067418;28;20437;-78
2021/08/26 09:02:36;;;;;;;12.80;3.25;;;19.70;99.90;;;;;;5071659;28;20380;-78
2021/08/26 09:05:02;;;;;;;11.23;2.90;;;19.80;99.90;;;;;;5071027;28;20088;-79
2021/08/26 09:07:33;;;;;;;12.35;3.10;;;19.80;99.90;;;;;;5071717;28;20385;-73
2021/08/26 09:09:59;;;;;;;10.43;2.63;;;19.90;99.90;;;;;;5055336;28;20448;-71
2021/08/26 09:12:40;;;;;;;10.82;2.95;;;19.80;99.90;;;;;;5065392;28;20039;-74
2021/08/26 09:15:23;;;;;;;7.63;2.33;;;19.80;99.90;;;;;;5070314;28;20035;-73
2021/08/26 09:17:49;;;;;;;6.57;2.08;;;19.70;99.90;;;;;;5065663;28;20064;-73
2021/08/26 09:20:18;;;;;;;6.65;1.98;;;19.70;99.90;;;;;;5064080;28;20023;-73
2021/08/26 09:22:44;;;;;;;5.35;2.58;;;19.80;99.90;;;;;;5068444;28;20022;-73
2021/08/26 09:25:13;;;;;;;6.05;2.40;;;19.70;99.90;;;;;;5067571;28;20028;-72
2021/08/26 09:27:42;;;;;;;8.65;3.10;;;19.80;99.90;;;;;;5071566;28;20043;-72
2021/08/26 09:30:19;;;;;;;7.63;2.45;;;19.80;99.90;;;;;;5065190;28;20079;-72
2021/08/26 09:32:56;;;;;;;9.77;2.10;;;19.80;99.90;;;;;;5067559;28;20059;-72
2021/08/26 09:35:30;;;;;;;11.20;2.53;;;19.80;99.90;;;;;;5071392;28;20044;-72
2021/08/26 09:38:01;;;;;;;7.07;2.35;;;19.80;99.90;;;;;;5064765;28;20111;-72
2021/08/26 09:40:47;;;;;;;10.82;2.25;;;19.80;99.90;;;;;;5065242;28;20012;-75
2021/08/26 09:43:14;;;;;;;7.72;3.00;;;20.00;99.90;;;;;;5067140;28;20465;-72
2021/08/26 09:45:47;;;;;;;9.70;2.60;;;20.10;99.90;;;;;;5071003;28;20028;-72
2021/08/26 09:48:15;;;;;;;10.15;2.20;;;20.10;99.90;;;;;;5058922;28;20017;-72
2021/08/26 09:50:52;;;;;;;8.70;2.55;;;20.30;99.90;;;;;;5070704;28;20036;-72
2021/08/26 09:53:19;;;;;;;9.43;2.22;;;20.30;99.90;;;;;;5070042;28;20032;-73
2021/08/26 09:55:51;;;;;;;9.27;2.42;;;20.20;99.90;;;;;;5065793;28;20052;-72
2021/08/26 09:58:18;;;;;;;10.93;2.50;;;20.30;99.90;;;;;;5065679;28;20103;-72
2021/08/26 10:00:44;;;;;;;7.57;2.33;;;20.30;99.90;;;;;;5066695;28;20553;-73
2021/08/26 10:03:14;;;;;;;8.57;2.97;;;20.10;99.90;;;;;;5050085;28;20423;-76
2021/08/26 10:05:44;;;;;;;9.93;2.25;;;20.10;99.90;;;;;;5064201;28;20016;-74
2021/08/26 10:08:12;;;;;;;5.60;1.67;;;20.10;99.90;;;;;;5065209;28;20013;-73
2021/08/26 10:10:40;;;;;;;6.55;2.40;;;20.10;99.90;;;;;;5069905;28;20016;-72
2021/08/26 10:13:06;;;;;;;8.00;2.25;;;20.10;99.90;;;;;;5067055;28;20025;-72
2021/08/26 10:15:38;;;;;;;6.35;2.30;;;20.10;99.90;;;;;;5067237;28;20107;-74
2021/08/26 10:18:04;;;;;;;5.67;2.40;;;20.00;99.90;;;;;;5055150;28;20079;-72
2021/08/26 10:20:29;;;;;;;7.68;2.15;;;20.00;99.90;;;;;;5051573;28;20275;-72
2021/08/26 10:22:56;;;;;;;4.28;1.88;;;19.90;99.90;;;;;;5062159;28;20536;-75
2021/08/26 10:25:22;;;;;;;5.43;2.10;;;19.80;99.90;;;;;;5056494;28;20112;-76
2021/08/26 10:27:50;;;;;;;6.60;2.20;;;19.90;99.90;;;;;;5070279;28;20095;-74
2021/08/26 10:30:37;;;;;;;9.50;2.30;;;19.90;99.90;;;;;;5068312;28;20028;-72
2021/08/26 10:33:24;;;;;;;9.98;2.67;;;20.00;99.90;;;;;;5065635;28;20025;-73
2021/08/26 10:35:53;;;;;;;5.50;2.30;;;20.00;99.90;;;;;;5067969;28;20041;-72
2021/08/26 10:38:28;;;;;;;5.78;1.98;;;20.00;99.90;;;;;;5066790;28;20032;-74
2021/08/26 10:40:59;;;;;;;9.55;2.15;;;20.10;99.90;;;;;;5068293;28;20104;-72
2021/08/26 10:43:53;;;;;;;4.45;1.75;;;20.20;99.90;;;;;;5066035;28;20036;-72
2021/08/26 10:46:55;;;;;;;9.80;1.88;;;20.20;99.90;;;;;;5066749;28;20519;-72
2021/08/26 10:49:23;;;;;;;9.00;2.10;;;20.20;99.90;;;;;;5067026;28;20025;-72
2021/08/26 10:51:51;;;;;;;7.80;2.08;;;20.20;99.90;;;;;;5064472;28;20060;-72
2021/08/26 10:54:24;;;;;;;4.55;1.67;;;20.20;99.90;;;;;;5067545;28;20028;-72
2021/08/26 10:56:50;;;;;;;5.45;1.75;;;20.20;99.90;;;;;;5051199;28;20419;-72
2021/08/26 10:59:32;;;;;;;4.03;1.73;;;20.20;99.90;;;;;;5068959;28;20028;-71
2021/08/26 11:01:59;;;;;;;7.43;2.22;;;20.20;99.90;;;;;;5066545;28;20037;-72
2021/08/26 11:04:33;;;;;;;4.22;1.73;;;20.30;99.90;;;;;;5068720;28;20499;-72
2021/08/26 11:06:58;;;;;;;6.38;2.25;;;20.30;99.90;;;;;;5052145;28;20426;-72
2021/08/26 11:09:28;;;;;;;7.18;1.92;;;20.30;99.90;;;;;;5068693;28;20107;-72
2021/08/26 11:11:59;;;;;;;5.75;1.75;;;20.40;99.90;;;;;;5067714;28;20032;-72
2021/08/26 11:14:28;;;;;;;4.53;1.60;;;20.60;99.90;;;;;;5069629;28;20062;-73
2021/08/26 11:17:02;;;;;;;5.28;1.88;;;20.60;99.90;;;;;;5067004;28;20117;-72
2021/08/26 11:19:31;;;;;;;7.90;2.35;;;20.50;99.90;;;;;;5069205;28;20020;-75
2021/08/26 11:22:06;;;;;;;7.85;1.98;;;20.50;99.90;;;;;;5066411;28;20033;-72
2021/08/26 11:24:34;;;;;;;8.05;2.30;;;20.60;99.90;;;;;;5069728;28;20029;-73
2021/08/26 11:27:04;;;;;;;8.38;1.92;;;20.80;99.90;;;;;;5065472;28;20107;-72
2021/08/26 11:29:36;;;;;;;8.23;1.52;;;20.90;99.90;;;;;;5050260;28;20040;-72
2021/08/26 11:32:05;;;;;;;5.05;1.52;;;20.90;99.90;;;;;;5065089;28;20031;-73
2021/08/26 11:34:42;;;;;;;3.78;1.80;;;20.80;99.90;;;;;;5068884;28;20017;-72
2021/08/26 11:37:12;;;;;;;6.57;2.10;;;20.80;99.90;;;;;;5063520;28;20433;-72
2021/08/26 11:39:45;;;;;;;5.97;2.10;;;20.60;99.90;;;;;;5066346;28;20017;-72
2021/08/26 11:42:17;;;;;;;8.77;2.20;;;20.40;99.90;;;;;;5060182;28;20040;-72
2021/08/26 11:44:44;;;;;;;5.93;2.03;;;20.40;99.90;;;;;;5065608;28;20151;-74
2021/08/26 11:47:10;;;;;;;11.25;3.80;;;20.30;99.90;;;;;;5059652;28;20044;-72
2021/08/26 11:49:41;;;;;;;9.02;3.75;;;20.30;99.90;;;;;;5064999;28;20028;-72
2021/08/26 11:52:13;;;;;;;6.57;1.95;;;20.40;99.90;;;;;;5068900;28;20155;-73
2021/08/26 11:54:45;;;;;;;7.05;2.47;;;20.40;99.90;;;;;;5062064;28;20070;-72
2021/08/26 11:57:12;;;;;;;6.70;2.03;;;20.40;99.90;;;;;;5061321;28;20036;-73
2021/08/26 11:59:40;;;;;;;6.65;2.22;;;20.50;99.90;;;;;;5070515;28;20158;-72
2021/08/26 12:02:24;;;;;;;8.02;1.88;;;20.40;99.90;;;;;;5051600;28;20025;-72
2021/08/26 12:04:53;;;;;;;4.32;1.70;;;20.50;99.90;;;;;;5068028;28;20104;-74
2021/08/26 12:07:25;;;;;;;7.85;2.00;;;20.70;99.90;;;;;;5069290;28;20025;-72
2021/08/26 12:09:50;;;;;;;4.95;2.08;;;20.90;99.90;;;;;;5048714;28;20036;-72
2021/08/26 12:12:16;;;;;;;5.70;2.30;;;21.20;99.90;;;;;;5065313;28;20032;-73
2021/08/26 12:14:42;;;;;;;6.63;1.92;;;21.40;99.90;;;;;;5066456;28;20035;-72
2021/08/26 12:17:19;;;;;;;7.07;2.00;;;21.50;99.90;;;;;;5062496;28;20033;-72
2021/08/26 12:19:47;;;;;;;6.93;2.08;;;21.50;99.90;;;;;;5060127;28;20567;-73
2021/08/26 12:22:17;;;;;;;8.93;2.30;;;21.50;99.90;;;;;;5064484;28;20028;-72
2021/08/26 12:25:17;;;;;;;5.25;2.20;;;21.50;99.90;;;;;;5063173;28;20520;-72
2021/08/26 12:27:50;;;;;;;8.55;2.17;;;21.50;99.90;;;;;;5054148;28;20130;-72
2021/08/26 12:30:44;;;;;;;5.47;2.13;;;21.50;99.90;;;;;;5061688;28;20056;-78
2021/08/26 12:33:11;;;;;;;5.55;2.40;;;21.50;99.90;;;;;;5065939;28;20036;-72
2021/08/26 12:35:46;;;;;;;5.90;2.13;;;21.40;99.90;;;;;;5070491;28;20032;-72
2021/08/26 12:38:31;;;;;;;11.63;2.55;;;21.40;99.90;;;;;;5068365;28;20024;-73
2021/08/26 12:40:58;;;;;;;3.90;2.05;;;21.20;99.90;;;;;;5068558;28;20044;-73
2021/08/26 12:43:26;;;;;;;9.73;3.25;;;21.20;99.90;;;;;;5067946;28;20031;-73
2021/08/26 12:46:06;;;;;;;5.75;2.17;;;21.20;99.90;;;;;;5074159;28;20036;-73
2021/08/26 12:48:36;;;;;;;10.65;2.42;;;21.30;99.90;;;;;;5070644;28;20029;-72
2021/08/26 12:51:10;;;;;;;7.03;2.38;;;21.40;99.90;;;;;;5053728;28;20461;-72